sensor_id;sensor_type;location;lat;lon;timestamp;P1;durP1;ratioP1;P2;durP2;ratioP2
10365;SDS011;5229;41.820;23.490;2022-08-01T00:01:49;5.50;;;4.47;;
10365;SDS011;5229;41.820;23.490;2022-08-01T00:04:15;4.97;;;4.57;;
10365;SDS011;5229;41.820;23.490;2022-08-01T00:06:42;4.73;;;4.33;;
10365;SDS011;5229;41.820;23.490;2022-08-01T00:09:11;5.00;;;4.50;;
10365;SDS011;5229;41.820;23.490;2022-08-01T00:11:37;4.63;;;4.23;;
10365;SDS011;5229;41.820;23.490;2022-08-01T00:14:04;4.67;;;4.27;;
10365;SDS011;5229;41.820;23.490;2022-08-01T00:16:34;4.37;;;3.97;;
10365;SDS011;5229;41.820;23.490;2022-08-01T00:19:01;6.57;;;4.47;;
10365;SDS011;5229;41.820;23.490;2022-08-01T00:21:28;4.43;;;4.03;;
10365;SDS011;5229;41.820;23.490;2022-08-01T00:23:55;4.00;;;3.70;;
10365;SDS011;5229;41.820;23.490;2022-08-01T00:26:23;4.50;;;4.10;;
10365;SDS011;5229;41.820;23.490;2022-08-01T00:28:50;4.53;;;4.13;;
10365;SDS011;5229;41.820;23.490;2022-08-01T00:31:16;5.33;;;4.83;;
10365;SDS011;5229;41.820;23.490;2022-08-01T00:33:43;3.97;;;3.67;;
10365;SDS011;5229;41.820;23.490;2022-08-01T00:36:10;4.37;;;3.97;;
10365;SDS011;5229;41.820;23.490;2022-08-01T00:38:37;4.70;;;4.30;;
10365;SDS011;5229;41.820;23.490;2022-08-01T00:41:04;4.50;;;4.10;;
10365;SDS011;5229;41.820;23.490;2022-08-01T00:43:32;4.10;;;3.80;;
10365;SDS011;5229;41.820;23.490;2022-08-01T00:45:59;4.10;;;3.73;;
10365;SDS011;5229;41.820;23.490;2022-08-01T00:48:26;3.73;;;3.43;;
10365;SDS011;5229;41.820;23.490;2022-08-01T00:50:52;4.17;;;3.77;;
10365;SDS011;5229;41.820;23.490;2022-08-01T00:53:19;4.17;;;3.80;;
10365;SDS011;5229;41.820;23.490;2022-08-01T00:55:46;4.00;;;3.70;;
10365;SDS011;5229;41.820;23.490;2022-08-01T00:58:13;4.27;;;3.97;;
10365;SDS011;5229;41.820;23.490;2022-08-01T01:00:41;3.60;;;3.30;;
10365;SDS011;5229;41.820;23.490;2022-08-01T01:03:08;4.17;;;3.77;;
10365;SDS011;5229;41.820;23.490;2022-08-01T01:05:36;4.30;;;3.90;;
10365;SDS011;5229;41.820;23.490;2022-08-01T01:08:12;4.40;;;4.00;;
10365;SDS011;5229;41.820;23.490;2022-08-01T01:10:43;4.27;;;3.97;;
10365;SDS011;5229;41.820;23.490;2022-08-01T01:13:20;4.23;;;3.87;;
10365;SDS011;5229;41.820;23.490;2022-08-01T01:15:57;4.93;;;4.53;;
10365;SDS011;5229;41.820;23.490;2022-08-01T01:18:27;3.93;;;3.63;;
10365;SDS011;5229;41.820;23.490;2022-08-01T01:21:01;4.40;;;3.97;;
10365;SDS011;5229;41.820;23.490;2022-08-01T01:23:43;4.47;;;4.07;;
10365;SDS011;5229;41.820;23.490;2022-08-01T01:26:31;3.77;;;3.47;;
10365;SDS011;5229;41.820;23.490;2022-08-01T01:29:13;4.60;;;4.20;;
10365;SDS011;5229;41.820;23.490;2022-08-01T01:31:44;4.20;;;3.80;;
10365;SDS011;5229;41.820;23.490;2022-08-01T01:34:17;4.57;;;4.13;;
10365;SDS011;5229;41.820;23.490;2022-08-01T01:36:47;3.57;;;3.37;;
10365;SDS011;5229;41.820;23.490;2022-08-01T01:39:16;3.80;;;3.50;;
10365;SDS011;5229;41.820;23.490;2022-08-01T01:41:43;4.00;;;3.70;;
10365;SDS011;5229;41.820;23.490;2022-08-01T01:44:14;4.57;;;4.17;;
10365;SDS011;5229;41.820;23.490;2022-08-01T01:46:41;4.10;;;3.80;;
10365;SDS011;5229;41.820;23.490;2022-08-01T01:49:09;3.80;;;3.50;;
10365;SDS011;5229;41.820;23.490;2022-08-01T01:51:38;4.30;;;4.00;;
10365;SDS011;5229;41.820;23.490;2022-08-01T01:54:07;3.80;;;3.50;;
10365;SDS011;5229;41.820;23.490;2022-08-01T01:56:35;3.80;;;3.50;;
10365;SDS011;5229;41.820;23.490;2022-08-01T01:59:15;4.20;;;3.67;;
10365;SDS011;5229;41.820;23.490;2022-08-01T02:01:44;3.53;;;3.23;;
10365;SDS011;5229;41.820;23.490;2022-08-01T02:04:13;3.77;;;3.40;;
10365;SDS011;5229;41.820;23.490;2022-08-01T02:06:40;3.90;;;3.60;;
10365;SDS011;5229;41.820;23.490;2022-08-01T02:09:08;3.83;;;3.53;;
10365;SDS011;5229;41.820;23.490;2022-08-01T02:11:36;3.60;;;3.30;;
10365;SDS011;5229;41.820;23.490;2022-08-01T02:14:04;3.10;;;2.80;;
10365;SDS011;5229;41.820;23.490;2022-08-01T02:16:35;3.13;;;2.80;;
10365;SDS011;5229;41.820;23.490;2022-08-01T02:19:05;2.77;;;2.57;;
10365;SDS011;5229;41.820;23.490;2022-08-01T02:21:35;3.00;;;2.70;;
10365;SDS011;5229;41.820;23.490;2022-08-01T02:24:07;2.97;;;2.70;;
10365;SDS011;5229;41.820;23.490;2022-08-01T02:26:39;2.57;;;2.20;;
10365;SDS011;5229;41.820;23.490;2022-08-01T02:29:10;2.73;;;2.53;;
10365;SDS011;5229;41.820;23.490;2022-08-01T02:31:42;4.23;;;2.30;;
10365;SDS011;5229;41.820;23.490;2022-08-01T02:34:13;2.63;;;2.43;;
10365;SDS011;5229;41.820;23.490;2022-08-01T02:36:44;2.73;;;2.50;;
10365;SDS011;5229;41.820;23.490;2022-08-01T02:39:14;3.87;;;2.17;;
10365;SDS011;5229;41.820;23.490;2022-08-01T02:41:45;2.80;;;2.60;;
10365;SDS011;5229;41.820;23.490;2022-08-01T02:44:15;2.97;;;2.10;;
10365;SDS011;5229;41.820;23.490;2022-08-01T02:46:51;1.93;;;1.83;;
10365;SDS011;5229;41.820;23.490;2022-08-01T02:49:21;2.00;;;1.90;;
10365;SDS011;5229;41.820;23.490;2022-08-01T02:51:52;2.30;;;1.90;;
10365;SDS011;5229;41.820;23.490;2022-08-01T02:54:21;2.93;;;1.90;;
10365;SDS011;5229;41.820;23.490;2022-08-01T02:56:49;3.13;;;1.97;;
10365;SDS011;5229;41.820;23.490;2022-08-01T02:59:18;1.70;;;1.60;;
10365;SDS011;5229;41.820;23.490;2022-08-01T03:01:52;1.90;;;1.73;;
10365;SDS011;5229;41.820;23.490;2022-08-01T03:04:21;1.77;;;1.67;;
10365;SDS011;5229;41.820;23.490;2022-08-01T03:06:49;1.80;;;1.70;;
10365;SDS011;5229;41.820;23.490;2022-08-01T03:09:18;2.50;;;1.77;;
10365;SDS011;5229;41.820;23.490;2022-08-01T03:11:47;2.10;;;1.90;;
10365;SDS011;5229;41.820;23.490;2022-08-01T03:14:15;2.03;;;1.80;;
10365;SDS011;5229;41.820;23.490;2022-08-01T03:16:44;2.20;;;1.80;;
10365;SDS011;5229;41.820;23.490;2022-08-01T03:19:14;1.70;;;1.60;;
10365;SDS011;5229;41.820;23.490;2022-08-01T03:21:44;2.13;;;1.77;;
10365;SDS011;5229;41.820;23.490;2022-08-01T03:24:13;3.57;;;1.80;;
10365;SDS011;5229;41.820;23.490;2022-08-01T03:26:41;1.80;;;1.70;;
10365;SDS011;5229;41.820;23.490;2022-08-01T03:29:11;3.03;;;1.80;;
10365;SDS011;5229;41.820;23.490;2022-08-01T03:31:42;1.63;;;1.53;;
10365;SDS011;5229;41.820;23.490;2022-08-01T03:34:11;1.80;;;1.70;;
10365;SDS011;5229;41.820;23.490;2022-08-01T03:36:41;2.10;;;1.73;;
10365;SDS011;5229;41.820;23.490;2022-08-01T03:39:12;1.77;;;1.67;;
10365;SDS011;5229;41.820;23.490;2022-08-01T03:41:43;1.50;;;1.40;;
10365;SDS011;5229;41.820;23.490;2022-08-01T03:44:17;1.70;;;1.60;;
10365;SDS011;5229;41.820;23.490;2022-08-01T03:46:50;2.40;;;1.53;;
10365;SDS011;5229;41.820;23.490;2022-08-01T03:49:26;1.63;;;1.53;;
10365;SDS011;5229;41.820;23.490;2022-08-01T03:51:58;1.53;;;1.43;;
10365;SDS011;5229;41.820;23.490;2022-08-01T03:54:30;2.13;;;1.40;;
10365;SDS011;5229;41.820;23.490;2022-08-01T03:57:00;1.67;;;1.57;;
10365;SDS011;5229;41.820;23.490;2022-08-01T03:59:28;1.80;;;1.20;;
10365;SDS011;5229;41.820;23.490;2022-08-01T04:01:56;1.50;;;1.40;;
10365;SDS011;5229;41.820;23.490;2022-08-01T04:04:27;1.50;;;1.40;;
10365;SDS011;5229;41.820;23.490;2022-08-01T04:06:55;4.50;;;2.10;;
10365;SDS011;5229;41.820;23.490;2022-08-01T04:09:23;2.17;;;1.60;;
10365;SDS011;5229;41.820;23.490;2022-08-01T04:11:50;2.80;;;2.00;;
10365;SDS011;5229;41.820;23.490;2022-08-01T04:14:29;2.83;;;1.70;;
10365;SDS011;5229;41.820;23.490;2022-08-01T04:16:56;2.73;;;1.60;;
10365;SDS011;5229;41.820;23.490;2022-08-01T04:19:23;3.63;;;1.73;;
10365;SDS011;5229;41.820;23.490;2022-08-01T04:21:51;1.57;;;1.47;;
10365;SDS011;5229;41.820;23.490;2022-08-01T04:24:19;3.03;;;2.37;;
10365;SDS011;5229;41.820;23.490;2022-08-01T04:26:51;4.00;;;3.60;;
10365;SDS011;5229;41.820;23.490;2022-08-01T04:29:19;4.10;;;3.70;;
10365;SDS011;5229;41.820;23.490;2022-08-01T04:31:48;4.30;;;3.90;;
10365;SDS011;5229;41.820;23.490;2022-08-01T04:34:16;4.67;;;4.17;;
10365;SDS011;5229;41.820;23.490;2022-08-01T04:36:47;4.83;;;4.13;;
10365;SDS011;5229;41.820;23.490;2022-08-01T04:39:14;4.67;;;3.73;;
10365;SDS011;5229;41.820;23.490;2022-08-01T04:41:46;4.27;;;3.87;;
10365;SDS011;5229;41.820;23.490;2022-08-01T04:44:13;4.20;;;3.83;;
10365;SDS011;5229;41.820;23.490;2022-08-01T04:46:41;3.67;;;3.37;;
10365;SDS011;5229;41.820;23.490;2022-08-01T04:49:10;3.23;;;3.00;;
10365;SDS011;5229;41.820;23.490;2022-08-01T04:51:49;4.07;;;3.53;;
10365;SDS011;5229;41.820;23.490;2022-08-01T04:54:17;2.77;;;2.53;;
10365;SDS011;5229;41.820;23.490;2022-08-01T04:56:47;2.33;;;2.13;;
10365;SDS011;5229;41.820;23.490;2022-08-01T04:59:14;2.37;;;2.17;;
10365;SDS011;5229;41.820;23.490;2022-08-01T05:01:58;2.57;;;2.37;;
10365;SDS011;5229;41.820;23.490;2022-08-01T05:04:25;1.90;;;1.80;;
10365;SDS011;5229;41.820;23.490;2022-08-01T05:06:52;2.37;;;2.17;;
10365;SDS011;5229;41.820;23.490;2022-08-01T05:09:19;2.90;;;2.60;;
10365;SDS011;5229;41.820;23.490;2022-08-01T05:11:47;2.53;;;2.30;;
10365;SDS011;5229;41.820;23.490;2022-08-01T05:14:14;2.37;;;2.17;;
10365;SDS011;5229;41.820;23.490;2022-08-01T05:16:41;6.50;;;3.50;;
10365;SDS011;5229;41.820;23.490;2022-08-01T05:19:08;2.00;;;1.90;;
10365;SDS011;5229;41.820;23.490;2022-08-01T05:21:35;3.13;;;2.70;;
10365;SDS011;5229;41.820;23.490;2022-08-01T05:24:02;2.47;;;2.27;;
10365;SDS011;5229;41.820;23.490;2022-08-01T05:26:30;2.50;;;2.30;;
10365;SDS011;5229;41.820;23.490;2022-08-01T05:28:58;3.88;;;2.42;;
10365;SDS011;5229;41.820;23.490;2022-08-01T05:31:25;4.07;;;2.70;;
10365;SDS011;5229;41.820;23.490;2022-08-01T05:33:52;3.13;;;2.83;;
10365;SDS011;5229;41.820;23.490;2022-08-01T05:36:19;2.63;;;2.40;;
10365;SDS011;5229;41.820;23.490;2022-08-01T05:38:46;3.30;;;2.75;;
10365;SDS011;5229;41.820;23.490;2022-08-01T05:41:12;3.53;;;2.63;;
10365;SDS011;5229;41.820;23.490;2022-08-01T05:43:39;2.45;;;2.22;;
10365;SDS011;5229;41.820;23.490;2022-08-01T05:46:07;6.28;;;2.50;;
10365;SDS011;5229;41.820;23.490;2022-08-01T05:48:34;4.07;;;3.67;;
10365;SDS011;5229;41.820;23.490;2022-08-01T05:51:01;3.35;;;3.05;;
10365;SDS011;5229;41.820;23.490;2022-08-01T05:53:28;3.97;;;2.85;;
10365;SDS011;5229;41.820;23.490;2022-08-01T05:55:55;4.53;;;2.58;;
10365;SDS011;5229;41.820;23.490;2022-08-01T05:58:22;2.45;;;1.80;;
10365;SDS011;5229;41.820;23.490;2022-08-01T06:00:49;2.13;;;1.70;;
10365;SDS011;5229;41.820;23.490;2022-08-01T06:03:17;1.75;;;1.65;;
10365;SDS011;5229;41.820;23.490;2022-08-01T06:05:44;2.33;;;2.13;;
10365;SDS011;5229;41.820;23.490;2022-08-01T06:08:11;2.17;;;1.98;;
10365;SDS011;5229;41.820;23.490;2022-08-01T06:10:38;8.55;;;2.22;;
10365;SDS011;5229;41.820;23.490;2022-08-01T06:13:05;3.22;;;1.55;;
10365;SDS011;5229;41.820;23.490;2022-08-01T06:15:32;2.97;;;2.33;;
10365;SDS011;5229;41.820;23.490;2022-08-01T06:17:59;1.90;;;1.80;;
10365;SDS011;5229;41.820;23.490;2022-08-01T06:20:27;20.05;;;3.70;;
10365;SDS011;5229;41.820;23.490;2022-08-01T06:22:54;8.95;;;2.28;;
10365;SDS011;5229;41.820;23.490;2022-08-01T06:25:21;1.80;;;1.70;;
10365;SDS011;5229;41.820;23.490;2022-08-01T06:27:48;1.88;;;1.77;;
10365;SDS011;5229;41.820;23.490;2022-08-01T06:30:15;2.13;;;1.70;;
10365;SDS011;5229;41.820;23.490;2022-08-01T06:32:42;2.78;;;1.60;;
10365;SDS011;5229;41.820;23.490;2022-08-01T06:35:09;2.63;;;2.13;;
10365;SDS011;5229;41.820;23.490;2022-08-01T06:37:37;1.77;;;1.60;;
10365;SDS011;5229;41.820;23.490;2022-08-01T06:40:05;1.98;;;1.83;;
10365;SDS011;5229;41.820;23.490;2022-08-01T06:42:34;1.60;;;1.50;;
10365;SDS011;5229;41.820;23.490;2022-08-01T06:45:01;1.70;;;1.60;;
10365;SDS011;5229;41.820;23.490;2022-08-01T06:47:28;1.52;;;1.42;;
10365;SDS011;5229;41.820;23.490;2022-08-01T06:49:55;2.00;;;1.90;;
10365;SDS011;5229;41.820;23.490;2022-08-01T06:52:21;3.83;;;1.92;;
10365;SDS011;5229;41.820;23.490;2022-08-01T06:54:50;2.05;;;1.73;;
10365;SDS011;5229;41.820;23.490;2022-08-01T06:57:17;1.70;;;1.60;;
10365;SDS011;5229;41.820;23.490;2022-08-01T06:59:44;2.70;;;2.38;;
10365;SDS011;5229;41.820;23.490;2022-08-01T07:02:11;1.75;;;1.63;;
10365;SDS011;5229;41.820;23.490;2022-08-01T07:04:38;1.83;;;1.50;;
10365;SDS011;5229;41.820;23.490;2022-08-01T07:07:04;1.65;;;1.55;;
10365;SDS011;5229;41.820;23.490;2022-08-01T07:09:31;1.52;;;1.42;;
10365;SDS011;5229;41.820;23.490;2022-08-01T07:12:00;1.63;;;1.52;;
10365;SDS011;5229;41.820;23.490;2022-08-01T07:14:27;2.08;;;1.75;;
10365;SDS011;5229;41.820;23.490;2022-08-01T07:16:54;4.05;;;1.67;;
10365;SDS011;5229;41.820;23.490;2022-08-01T07:19:20;1.90;;;1.80;;
10365;SDS011;5229;41.820;23.490;2022-08-01T07:21:47;2.10;;;1.90;;
10365;SDS011;5229;41.820;23.490;2022-08-01T07:24:14;3.15;;;1.75;;
10365;SDS011;5229;41.820;23.490;2022-08-01T07:26:41;1.70;;;1.60;;
10365;SDS011;5229;41.820;23.490;2022-08-01T07:29:11;1.83;;;1.73;;
10365;SDS011;5229;41.820;23.490;2022-08-01T07:31:38;2.28;;;1.60;;
10365;SDS011;5229;41.820;23.490;2022-08-01T07:34:06;2.00;;;1.80;;
10365;SDS011;5229;41.820;23.490;2022-08-01T07:36:33;1.85;;;1.70;;
10365;SDS011;5229;41.820;23.490;2022-08-01T07:39:00;1.75;;;1.65;;
10365;SDS011;5229;41.820;23.490;2022-08-01T07:41:27;1.83;;;1.73;;
10365;SDS011;5229;41.820;23.490;2022-08-01T07:43:54;1.95;;;1.65;;
10365;SDS011;5229;41.820;23.490;2022-08-01T07:46:22;1.83;;;1.60;;
10365;SDS011;5229;41.820;23.490;2022-08-01T07:48:49;1.77;;;1.67;;
10365;SDS011;5229;41.820;23.490;2022-08-01T07:51:15;1.92;;;1.83;;
10365;SDS011;5229;41.820;23.490;2022-08-01T07:53:42;3.88;;;2.55;;
10365;SDS011;5229;41.820;23.490;2022-08-01T07:56:09;1.92;;;1.70;;
10365;SDS011;5229;41.820;23.490;2022-08-01T07:58:36;1.92;;;1.83;;
10365;SDS011;5229;41.820;23.490;2022-08-01T08:01:03;2.70;;;1.80;;
10365;SDS011;5229;41.820;23.490;2022-08-01T08:03:32;2.40;;;1.73;;
10365;SDS011;5229;41.820;23.490;2022-08-01T08:05:59;2.00;;;1.80;;
10365;SDS011;5229;41.820;23.490;2022-08-01T08:08:26;3.17;;;1.98;;
10365;SDS011;5229;41.820;23.490;2022-08-01T08:10:53;2.63;;;1.83;;
10365;SDS011;5229;41.820;23.490;2022-08-01T08:13:20;1.92;;;1.83;;
10365;SDS011;5229;41.820;23.490;2022-08-01T08:15:48;2.20;;;1.88;;
10365;SDS011;5229;41.820;23.490;2022-08-01T08:18:15;4.00;;;1.90;;
10365;SDS011;5229;41.820;23.490;2022-08-01T08:20:44;1.92;;;1.83;;
10365;SDS011;5229;41.820;23.490;2022-08-01T08:23:11;2.33;;;1.90;;
10365;SDS011;5229;41.820;23.490;2022-08-01T08:25:52;1.90;;;1.80;;
10365;SDS011;5229;41.820;23.490;2022-08-01T08:28:27;2.95;;;2.00;;
10365;SDS011;5229;41.820;23.490;2022-08-01T08:30:54;2.22;;;1.83;;
10365;SDS011;5229;41.820;23.490;2022-08-01T08:33:21;2.00;;;1.90;;
10365;SDS011;5229;41.820;23.490;2022-08-01T08:35:49;2.00;;;1.90;;
10365;SDS011;5229;41.820;23.490;2022-08-01T08:38:16;5.70;;;1.92;;
10365;SDS011;5229;41.820;23.490;2022-08-01T08:40:42;1.90;;;1.70;;
10365;SDS011;5229;41.820;23.490;2022-08-01T08:43:10;2.42;;;1.90;;
10365;SDS011;5229;41.820;23.490;2022-08-01T08:45:38;5.15;;;1.92;;
10365;SDS011;5229;41.820;23.490;2022-08-01T08:48:05;3.00;;;2.05;;
10365;SDS011;5229;41.820;23.490;2022-08-01T08:50:32;1.67;;;1.58;;
10365;SDS011;5229;41.820;23.490;2022-08-01T08:53:01;1.95;;;1.85;;
10365;SDS011;5229;41.820;23.490;2022-08-01T08:55:29;2.10;;;1.80;;
10365;SDS011;5229;41.820;23.490;2022-08-01T08:57:56;2.20;;;1.98;;
10365;SDS011;5229;41.820;23.490;2022-08-01T09:00:24;1.65;;;1.55;;
10365;SDS011;5229;41.820;23.490;2022-08-01T09:02:51;1.85;;;1.60;;
10365;SDS011;5229;41.820;23.490;2022-08-01T09:05:21;1.70;;;1.60;;
10365;SDS011;5229;41.820;23.490;2022-08-01T09:07:50;4.18;;;1.83;;
10365;SDS011;5229;41.820;23.490;2022-08-01T09:10:19;1.73;;;1.63;;
10365;SDS011;5229;41.820;23.490;2022-08-01T09:13:02;1.75;;;1.50;;
10365;SDS011;5229;41.820;23.490;2022-08-01T09:15:37;4.28;;;1.67;;
10365;SDS011;5229;41.820;23.490;2022-08-01T09:18:05;1.67;;;1.52;;
10365;SDS011;5229;41.820;23.490;2022-08-01T09:20:32;1.50;;;1.40;;
10365;SDS011;5229;41.820;23.490;2022-08-01T09:23:00;1.42;;;1.33;;
10365;SDS011;5229;41.820;23.490;2022-08-01T09:25:30;1.42;;;1.33;;
10365;SDS011;5229;41.820;23.490;2022-08-01T09:28:02;1.67;;;1.58;;
10365;SDS011;5229;41.820;23.490;2022-08-01T09:30:36;1.48;;;1.35;;
10365;SDS011;5229;41.820;23.490;2022-08-01T09:33:05;1.63;;;1.52;;
10365;SDS011;5229;41.820;23.490;2022-08-01T09:35:32;6.38;;;1.60;;
10365;SDS011;5229;41.820;23.490;2022-08-01T09:40:49;1.40;;;1.30;;
10365;SDS011;5229;41.820;23.490;2022-08-01T09:43:17;1.40;;;1.30;;
10365;SDS011;5229;41.820;23.490;2022-08-01T09:45:45;1.95;;;1.33;;
10365;SDS011;5229;41.820;23.490;2022-08-01T09:48:12;1.90;;;1.60;;
10365;SDS011;5229;41.820;23.490;2022-08-01T09:50:41;3.28;;;1.13;;
10365;SDS011;5229;41.820;23.490;2022-08-01T09:53:09;1.50;;;1.40;;
10365;SDS011;5229;41.820;23.490;2022-08-01T09:55:36;1.20;;;1.20;;
10365;SDS011;5229;41.820;23.490;2022-08-01T09:58:05;1.55;;;1.30;;
10365;SDS011;5229;41.820;23.490;2022-08-01T10:00:32;2.20;;;1.30;;
10365;SDS011;5229;41.820;23.490;2022-08-01T10:03:00;1.42;;;1.33;;
10365;SDS011;5229;41.820;23.490;2022-08-01T10:05:45;1.30;;;1.20;;
10365;SDS011;5229;41.820;23.490;2022-08-01T10:08:13;1.30;;;1.20;;
10365;SDS011;5229;41.820;23.490;2022-08-01T10:10:40;1.17;;;1.15;;
10365;SDS011;5229;41.820;23.490;2022-08-01T10:13:09;1.00;;;1.00;;
10365;SDS011;5229;41.820;23.490;2022-08-01T10:15:37;1.10;;;1.00;;
10365;SDS011;5229;41.820;23.490;2022-08-01T10:18:06;1.08;;;0.98;;
10365;SDS011;5229;41.820;23.490;2022-08-01T10:20:35;1.40;;;1.30;;
10365;SDS011;5229;41.820;23.490;2022-08-01T10:23:03;1.10;;;1.10;;
10365;SDS011;5229;41.820;23.490;2022-08-01T10:25:33;0.90;;;0.90;;
10365;SDS011;5229;41.820;23.490;2022-08-01T10:28:02;1.10;;;1.10;;
10365;SDS011;5229;41.820;23.490;2022-08-01T10:30:37;1.10;;;1.10;;
10365;SDS011;5229;41.820;23.490;2022-08-01T10:33:07;1.92;;;1.27;;
10365;SDS011;5229;41.820;23.490;2022-08-01T10:35:34;1.02;;;1.02;;
10365;SDS011;5229;41.820;23.490;2022-08-01T10:38:01;1.75;;;1.65;;
10365;SDS011;5229;41.820;23.490;2022-08-01T10:40:29;1.17;;;1.08;;
10365;SDS011;5229;41.820;23.490;2022-08-01T10:42:57;1.10;;;1.10;;
10365;SDS011;5229;41.820;23.490;2022-08-01T10:45:24;1.20;;;1.20;;
10365;SDS011;5229;41.820;23.490;2022-08-01T10:47:56;1.42;;;1.08;;
10365;SDS011;5229;41.820;23.490;2022-08-01T10:50:29;1.15;;;1.10;;
10365;SDS011;5229;41.820;23.490;2022-08-01T10:53:06;1.90;;;1.20;;
10365;SDS011;5229;41.820;23.490;2022-08-01T10:55:45;1.63;;;1.30;;
10365;SDS011;5229;41.820;23.490;2022-08-01T10:58:13;1.40;;;1.30;;
10365;SDS011;5229;41.820;23.490;2022-08-01T11:00:45;1.55;;;1.45;;
10365;SDS011;5229;41.820;23.490;2022-08-01T11:03:13;4.15;;;1.80;;
10365;SDS011;5229;41.820;23.490;2022-08-01T11:05:40;1.67;;;1.58;;
10365;SDS011;5229;41.820;23.490;2022-08-01T11:08:12;3.38;;;1.90;;
10365;SDS011;5229;41.820;23.490;2022-08-01T11:10:48;2.47;;;1.80;;
10365;SDS011;5229;41.820;23.490;2022-08-01T11:16:26;1.98;;;1.70;;
10365;SDS011;5229;41.820;23.490;2022-08-01T11:18:55;2.05;;;1.80;;
10365;SDS011;5229;41.820;23.490;2022-08-01T11:21:22;1.80;;;1.70;;
10365;SDS011;5229;41.820;23.490;2022-08-01T11:27:23;2.00;;;1.73;;
10365;SDS011;5229;41.820;23.490;2022-08-01T11:32:51;1.88;;;1.77;;
10365;SDS011;5229;41.820;23.490;2022-08-01T11:35:20;1.80;;;1.70;;
10365;SDS011;5229;41.820;23.490;2022-08-01T11:37:50;1.92;;;1.83;;
10365;SDS011;5229;41.820;23.490;2022-08-01T11:40:18;1.58;;;1.48;;
10365;SDS011;5229;41.820;23.490;2022-08-01T11:42:47;3.28;;;1.85;;
10365;SDS011;5229;41.820;23.490;2022-08-01T11:45:14;2.05;;;1.85;;
10365;SDS011;5229;41.820;23.490;2022-08-01T11:47:45;1.67;;;1.58;;
10365;SDS011;5229;41.820;23.490;2022-08-01T11:50:30;1.80;;;1.70;;
10365;SDS011;5229;41.820;23.490;2022-08-01T11:52:59;1.85;;;1.75;;
10365;SDS011;5229;41.820;23.490;2022-08-01T11:55:26;2.33;;;2.17;;
10365;SDS011;5229;41.820;23.490;2022-08-01T11:57:58;1.88;;;1.77;;
10365;SDS011;5229;41.820;23.490;2022-08-01T12:00:26;3.80;;;2.00;;
10365;SDS011;5229;41.820;23.490;2022-08-01T12:02:57;3.42;;;2.05;;
10365;SDS011;5229;41.820;23.490;2022-08-01T12:05:26;3.50;;;2.20;;
10365;SDS011;5229;41.820;23.490;2022-08-01T12:07:56;2.08;;;1.88;;
10365;SDS011;5229;41.820;23.490;2022-08-01T12:10:24;1.88;;;1.77;;
10365;SDS011;5229;41.820;23.490;2022-08-01T12:12:53;2.25;;;1.98;;
10365;SDS011;5229;41.820;23.490;2022-08-01T12:15:22;2.15;;;1.95;;
10365;SDS011;5229;41.820;23.490;2022-08-01T12:17:50;2.55;;;1.90;;
10365;SDS011;5229;41.820;23.490;2022-08-01T12:20:22;1.92;;;1.83;;
10365;SDS011;5229;41.820;23.490;2022-08-01T12:22:52;5.90;;;2.03;;
10365;SDS011;5229;41.820;23.490;2022-08-01T12:25:21;1.88;;;1.77;;
10365;SDS011;5229;41.820;23.490;2022-08-01T12:27:48;2.03;;;1.92;;
10365;SDS011;5229;41.820;23.490;2022-08-01T12:30:16;2.22;;;2.05;;
10365;SDS011;5229;41.820;23.490;2022-08-01T12:32:47;2.58;;;2.38;;
10365;SDS011;5229;41.820;23.490;2022-08-01T12:35:16;2.22;;;2.03;;
10365;SDS011;5229;41.820;23.490;2022-08-01T12:37:45;2.25;;;2.10;;
10365;SDS011;5229;41.820;23.490;2022-08-01T12:40:14;3.90;;;2.20;;
10365;SDS011;5229;41.820;23.490;2022-08-01T12:42:44;2.10;;;1.92;;
10365;SDS011;5229;41.820;23.490;2022-08-01T12:45:13;2.10;;;1.90;;
10365;SDS011;5229;41.820;23.490;2022-08-01T12:47:42;2.30;;;2.15;;
10365;SDS011;5229;41.820;23.490;2022-08-01T12:50:12;2.50;;;2.15;;
10365;SDS011;5229;41.820;23.490;2022-08-01T12:52:40;2.30;;;2.10;;
10365;SDS011;5229;41.820;23.490;2022-08-01T12:55:12;2.97;;;1.80;;
10365;SDS011;5229;41.820;23.490;2022-08-01T12:57:40;4.35;;;1.83;;
10365;SDS011;5229;41.820;23.490;2022-08-01T13:00:12;2.60;;;2.40;;
10365;SDS011;5229;41.820;23.490;2022-08-01T13:02:42;2.50;;;2.30;;
10365;SDS011;5229;41.820;23.490;2022-08-01T13:05:12;1.88;;;1.77;;
10365;SDS011;5229;41.820;23.490;2022-08-01T13:07:43;2.20;;;2.00;;
10365;SDS011;5229;41.820;23.490;2022-08-01T13:10:13;2.20;;;2.10;;
10365;SDS011;5229;41.820;23.490;2022-08-01T13:12:50;2.10;;;1.98;;
10365;SDS011;5229;41.820;23.490;2022-08-01T13:15:21;3.10;;;2.20;;
10365;SDS011;5229;41.820;23.490;2022-08-01T13:17:55;2.15;;;2.05;;
10365;SDS011;5229;41.820;23.490;2022-08-01T13:20:27;2.50;;;2.10;;
10365;SDS011;5229;41.820;23.490;2022-08-01T13:23:09;2.28;;;1.80;;
10365;SDS011;5229;41.820;23.490;2022-08-01T13:25:46;1.88;;;1.75;;
10365;SDS011;5229;41.820;23.490;2022-08-01T13:28:18;2.05;;;1.90;;
10365;SDS011;5229;41.820;23.490;2022-08-01T13:30:54;5.22;;;2.28;;
10365;SDS011;5229;41.820;23.490;2022-08-01T13:33:22;1.95;;;1.80;;
10365;SDS011;5229;41.820;23.490;2022-08-01T13:35:50;2.05;;;1.92;;
10365;SDS011;5229;41.820;23.490;2022-08-01T13:38:18;1.92;;;1.83;;
10365;SDS011;5229;41.820;23.490;2022-08-01T13:40:45;7.30;;;5.88;;
10365;SDS011;5229;41.820;23.490;2022-08-01T13:43:12;2.78;;;2.00;;
10365;SDS011;5229;41.820;23.490;2022-08-01T13:45:39;2.35;;;1.90;;
10365;SDS011;5229;41.820;23.490;2022-08-01T13:48:07;2.00;;;1.83;;
10365;SDS011;5229;41.820;23.490;2022-08-01T13:50:35;1.80;;;1.70;;
10365;SDS011;5229;41.820;23.490;2022-08-01T13:53:01;2.20;;;2.00;;
10365;SDS011;5229;41.820;23.490;2022-08-01T13:55:28;2.08;;;1.98;;
10365;SDS011;5229;41.820;23.490;2022-08-01T13:57:55;2.08;;;1.88;;
10365;SDS011;5229;41.820;23.490;2022-08-01T14:00:22;1.65;;;1.55;;
10365;SDS011;5229;41.820;23.490;2022-08-01T14:02:49;2.42;;;2.22;;
10365;SDS011;5229;41.820;23.490;2022-08-01T14:05:17;1.60;;;1.50;;
10365;SDS011;5229;41.820;23.490;2022-08-01T14:07:44;2.00;;;1.90;;
10365;SDS011;5229;41.820;23.490;2022-08-01T14:10:11;1.98;;;1.77;;
10365;SDS011;5229;41.820;23.490;2022-08-01T14:12:38;1.80;;;1.70;;
10365;SDS011;5229;41.820;23.490;2022-08-01T14:15:05;1.80;;;1.70;;
10365;SDS011;5229;41.820;23.490;2022-08-01T14:17:33;2.45;;;1.80;;
10365;SDS011;5229;41.820;23.490;2022-08-01T14:20:00;2.00;;;1.80;;
10365;SDS011;5229;41.820;23.490;2022-08-01T14:22:29;1.67;;;1.58;;
10365;SDS011;5229;41.820;23.490;2022-08-01T14:24:56;1.80;;;1.70;;
10365;SDS011;5229;41.820;23.490;2022-08-01T14:27:24;1.83;;;1.73;;
10365;SDS011;5229;41.820;23.490;2022-08-01T14:29:50;1.90;;;1.80;;
10365;SDS011;5229;41.820;23.490;2022-08-01T14:32:17;1.58;;;1.48;;
10365;SDS011;5229;41.820;23.490;2022-08-01T14:34:44;1.70;;;1.60;;
10365;SDS011;5229;41.820;23.490;2022-08-01T14:37:11;1.95;;;1.70;;
10365;SDS011;5229;41.820;23.490;2022-08-01T14:39:40;1.92;;;1.60;;
10365;SDS011;5229;41.820;23.490;2022-08-01T14:42:06;2.33;;;2.05;;
10365;SDS011;5229;41.820;23.490;2022-08-01T14:44:33;1.92;;;1.73;;
10365;SDS011;5229;41.820;23.490;2022-08-01T14:47:00;1.95;;;1.60;;
10365;SDS011;5229;41.820;23.490;2022-08-01T14:49:27;1.60;;;1.50;;
10365;SDS011;5229;41.820;23.490;2022-08-01T14:51:54;1.90;;;1.80;;
10365;SDS011;5229;41.820;23.490;2022-08-01T14:54:21;2.00;;;1.90;;
10365;SDS011;5229;41.820;23.490;2022-08-01T14:56:49;2.50;;;1.75;;
10365;SDS011;5229;41.820;23.490;2022-08-01T14:59:17;3.47;;;3.17;;
10365;SDS011;5229;41.820;23.490;2022-08-01T15:01:45;4.13;;;3.20;;
10365;SDS011;5229;41.820;23.490;2022-08-01T15:04:11;1.70;;;1.60;;
10365;SDS011;5229;41.820;23.490;2022-08-01T15:06:39;5.00;;;1.83;;
10365;SDS011;5229;41.820;23.490;2022-08-01T15:09:06;2.47;;;1.80;;
10365;SDS011;5229;41.820;23.490;2022-08-01T15:11:32;1.63;;;1.52;;